Alegrete do Piaui, Brazil
Current Conditions -  °F | °C
As of 12:00 PM on Saturday 20 Dec 2014 (Local Time) from SBJU Reporting Station
Broken Clouds Broken Clouds  
Wind Chill: 86°   Ceiling: 2200
Heat Index: 90°   Visibility: 6mi
Dew Point: 70°   Wind: 8mph
Humidity: 58%   Direction: 150°SSE
Pressure: 30.03"   Gusts: NA
Location:  7.24°S, 40.86°W
Report Text: SBJU 201500Z 15007KT 9999 BKN022 30/21 Q1017
Loading
Personal Weather Stations






























Interactive Weather Map New forecast layout! Learn more

10-Day Weather Forecast

Advertisements
Track Severe Weather on mobile